createdAt,value
2022-12-06T00:00:49.576Z,10.70
2022-12-06T00:03:56.075Z,11.26
2022-12-06T00:06:58.851Z,11.53
2022-12-06T00:10:01.920Z,12.12
2022-12-06T00:13:05.701Z,12.53
2022-12-06T00:16:11.753Z,12.29
2022-12-06T00:19:17.552Z,10.89
2022-12-06T00:22:20.363Z,10.11
2022-12-06T00:25:23.106Z,11.00
2022-12-06T00:28:25.895Z,11.42
2022-12-06T00:31:30.703Z,11.60
2022-12-06T00:34:33.599Z,11.69
2022-12-06T00:37:36.498Z,11.81
2022-12-06T00:40:39.199Z,11.95
2022-12-06T00:43:42.401Z,11.80
2022-12-06T00:46:45.127Z,10.68
2022-12-06T00:49:47.923Z,9.58
2022-12-06T00:52:50.683Z,9.76
2022-12-06T00:55:55.445Z,10.10
2022-12-06T00:58:58.399Z,10.19
2022-12-06T01:02:01.125Z,10.24
2022-12-06T01:05:04.155Z,10.28
2022-12-06T01:08:07.083Z,10.29
2022-12-06T01:11:11.458Z,10.39
2022-12-06T01:14:14.264Z,10.72
2022-12-06T01:17:17.108Z,11.07
2022-12-06T01:20:19.963Z,11.21
2022-12-06T01:23:22.704Z,11.12
2022-12-06T01:26:28.473Z,11.07
2022-12-06T01:29:31.209Z,10.98
2022-12-06T01:32:34.206Z,10.79
2022-12-06T01:35:42.069Z,10.76
2022-12-06T01:38:44.879Z,10.60
2022-12-06T01:41:47.666Z,10.53
2022-12-06T01:44:55.915Z,10.35
2022-12-06T01:47:58.721Z,10.06
2022-12-06T01:51:03.505Z,9.94
2022-12-06T01:54:10.991Z,9.69
2022-12-06T01:57:15.340Z,9.68
2022-12-06T02:00:18.641Z,9.72
2022-12-06T02:03:27.524Z,9.46
2022-12-06T02:06:32.080Z,9.24
2022-12-06T02:09:35.074Z,9.00
2022-12-06T02:12:37.848Z,8.82
2022-12-06T02:16:05.268Z,8.73
2022-12-06T02:19:29.617Z,8.58
2022-12-06T02:23:10.377Z,8.67
2022-12-06T02:26:35.057Z,8.96
2022-12-06T02:30:00.195Z,9.12
2022-12-06T02:33:11.535Z,9.01
2022-12-06T02:36:24.114Z,8.89
2022-12-06T02:39:36.199Z,8.78
2022-12-06T02:42:54.185Z,8.83
2022-12-06T02:46:00.994Z,8.84
2022-12-06T02:49:07.270Z,8.52
2022-12-06T02:52:10.493Z,8.41
2022-12-06T02:55:15.730Z,8.48
2022-12-06T02:58:18.750Z,8.65
2022-12-06T03:01:26.792Z,8.79
2022-12-06T03:04:58.458Z,8.74
2022-12-06T03:08:12.098Z,8.51
2022-12-06T03:11:15.523Z,8.42
2022-12-06T03:14:23.269Z,8.39
2022-12-06T03:17:37.126Z,8.28
2022-12-06T03:20:43.165Z,8.20
2022-12-06T03:23:50.536Z,8.20
2022-12-06T03:26:56.734Z,8.27
2022-12-06T03:30:05.188Z,8.23
2022-12-06T03:33:09.544Z,8.14
2022-12-06T03:36:14.756Z,8.18
2022-12-06T03:39:31.570Z,8.16
2022-12-06T03:42:35.024Z,8.10
2022-12-06T03:45:46.382Z,8.26
2022-12-06T03:49:06.654Z,8.51
2022-12-06T03:52:10.035Z,8.94
2022-12-06T03:55:12.873Z,9.34
2022-12-06T03:58:15.631Z,9.55
2022-12-06T04:01:18.620Z,9.52
2022-12-06T04:04:21.513Z,9.45
2022-12-06T04:07:24.260Z,9.38
2022-12-06T04:10:27.097Z,9.38
2022-12-06T04:13:30.357Z,9.44
2022-12-06T04:16:52.030Z,9.36
2022-12-06T04:19:54.774Z,9.29
2022-12-06T04:23:06.372Z,9.28
2022-12-06T04:26:12.183Z,9.25
2022-12-06T04:29:33.699Z,9.20
2022-12-06T04:32:54.893Z,9.32
2022-12-06T04:36:16.493Z,9.85
2022-12-06T04:39:20.931Z,10.09
2022-12-06T04:42:43.095Z,10.27
2022-12-06T04:45:45.874Z,10.61
2022-12-06T04:48:48.590Z,10.56
2022-12-06T04:51:52.281Z,10.49
2022-12-06T04:54:55.090Z,10.56
2022-12-06T04:57:57.868Z,10.58
2022-12-06T05:01:00.664Z,10.76
2022-12-06T05:04:03.721Z,10.75
2022-12-06T05:07:06.685Z,10.71
2022-12-06T05:10:09.686Z,10.60
2022-12-06T05:13:12.416Z,10.42
2022-12-06T05:16:15.477Z,10.28
2022-12-06T05:19:18.267Z,10.17
2022-12-06T05:22:20.999Z,10.12
2022-12-06T05:25:23.926Z,10.21
2022-12-06T05:28:26.983Z,10.50
2022-12-06T05:31:29.914Z,10.39
2022-12-06T05:34:32.680Z,10.15
2022-12-06T05:37:35.467Z,9.96
2022-12-06T05:40:43.131Z,9.84
2022-12-06T05:43:46.033Z,9.78
2022-12-06T05:46:48.946Z,9.82
2022-12-06T05:49:51.724Z,9.85
2022-12-06T05:52:59.645Z,9.85
2022-12-06T05:56:07.531Z,9.80
2022-12-06T05:59:10.316Z,9.77
2022-12-06T06:02:13.130Z,9.79
2022-12-06T06:05:16.162Z,9.75
2022-12-06T06:08:18.980Z,9.71
2022-12-06T06:11:21.830Z,9.72
2022-12-06T06:14:24.671Z,9.75
2022-12-06T06:17:27.496Z,9.77
2022-12-06T06:20:30.579Z,9.79
2022-12-06T06:23:33.791Z,9.50
2022-12-06T06:26:36.703Z,9.41
2022-12-06T06:29:44.954Z,9.41
2022-12-06T06:32:48.307Z,9.46
2022-12-06T06:35:51.127Z,9.51
2022-12-06T06:38:53.922Z,9.88
2022-12-06T06:41:56.732Z,10.13
2022-12-06T06:44:59.507Z,10.00
2022-12-06T06:48:02.447Z,9.79
2022-12-06T06:51:08.330Z,9.94
2022-12-06T06:54:12.638Z,10.79
2022-12-06T06:57:17.834Z,10.79
2022-12-06T07:00:21.103Z,10.72
2022-12-06T07:03:24.329Z,10.91
2022-12-06T07:06:27.151Z,11.14
2022-12-06T07:09:29.906Z,11.50
2022-12-06T07:12:32.701Z,11.77
2022-12-06T07:15:36.534Z,11.85
2022-12-06T07:18:39.409Z,11.75
2022-12-06T07:21:42.171Z,11.65
2022-12-06T07:24:50.727Z,11.60
2022-12-06T07:27:55.287Z,11.61
2022-12-06T07:30:58.145Z,11.64
2022-12-06T07:34:02.512Z,11.62
2022-12-06T07:37:06.633Z,11.42
2022-12-06T07:40:09.985Z,11.22
2022-12-06T07:43:31.625Z,11.14
2022-12-06T07:46:34.535Z,10.73
2022-12-06T07:49:37.347Z,10.55
2022-12-06T07:52:40.360Z,10.44
2022-12-06T07:55:43.201Z,10.35
2022-12-06T07:58:46.084Z,10.28
2022-12-06T08:01:49.113Z,10.12
2022-12-06T08:04:53.121Z,10.26
2022-12-06T08:07:56.136Z,11.04
2022-12-06T08:11:00.647Z,11.11
2022-12-06T08:14:05.083Z,11.10
2022-12-06T08:17:07.835Z,10.93
2022-12-06T08:20:11.047Z,10.73
2022-12-06T08:23:13.991Z,11.48
2022-12-06T08:26:18.778Z,12.01
2022-12-06T08:29:21.723Z,12.16
2022-12-06T08:32:24.862Z,11.49
2022-12-06T08:35:28.022Z,9.91
2022-12-06T08:38:30.871Z,9.33
2022-12-06T08:41:52.407Z,10.76
2022-12-06T08:44:55.288Z,11.46
2022-12-06T08:47:58.230Z,11.41
2022-12-06T08:51:04.246Z,12.00
2022-12-06T08:54:08.940Z,11.67
2022-12-06T08:57:11.706Z,10.29
2022-12-06T09:00:15.134Z,9.59
2022-12-06T09:03:17.884Z,10.50
2022-12-06T09:06:22.384Z,10.99
2022-12-06T09:09:25.181Z,11.26
2022-12-06T09:12:27.970Z,11.20
2022-12-06T09:15:30.927Z,11.16
2022-12-06T09:18:33.946Z,11.12
2022-12-06T09:21:39.879Z,11.32
2022-12-06T09:24:42.786Z,11.37
2022-12-06T09:27:45.760Z,11.22
2022-12-06T09:30:48.625Z,11.08
2022-12-06T09:33:52.223Z,11.25
2022-12-06T09:37:12.123Z,11.18
2022-12-06T09:40:32.630Z,10.58
2022-12-06T09:43:44.629Z,10.21
2022-12-06T09:46:56.297Z,9.94
2022-12-06T09:50:11.201Z,9.86
2022-12-06T09:53:20.098Z,9.71
2022-12-06T09:56:40.441Z,9.73
2022-12-06T10:00:11.860Z,9.71
2022-12-06T10:03:32.387Z,9.68
2022-12-06T10:06:44.758Z,9.75
2022-12-06T10:10:18.261Z,9.65
2022-12-06T10:13:30.096Z,9.44
2022-12-06T10:16:38.793Z,9.68
2022-12-06T10:19:50.653Z,9.90
2022-12-06T10:23:02.649Z,10.34
2022-12-06T10:26:25.673Z,9.01
2022-12-06T10:30:01.375Z,8.03
2022-12-06T10:33:20.492Z,9.33
2022-12-06T10:36:52.930Z,9.71
2022-12-06T10:40:01.978Z,9.43
2022-12-06T10:43:18.503Z,9.34
2022-12-06T10:46:50.414Z,9.02
2022-12-06T10:50:04.864Z,8.82
2022-12-06T10:56:41.648Z,9.72
2022-12-06T10:59:54.663Z,10.20
2022-12-06T11:03:03.202Z,9.38
2022-12-06T11:06:14.468Z,8.03
2022-12-06T11:09:32.633Z,8.69
2022-12-06T11:12:39.105Z,9.47
2022-12-06T11:15:49.207Z,10.05
2022-12-06T11:18:56.382Z,10.49
2022-12-06T11:22:17.547Z,9.32
2022-12-06T11:25:40.864Z,8.38
2022-12-06T11:28:52.646Z,9.76
2022-12-06T11:31:58.777Z,10.49
2022-12-06T11:35:02.055Z,9.35
2022-12-06T11:38:07.457Z,8.14
2022-12-06T11:41:17.677Z,8.40
2022-12-06T11:44:25.642Z,9.73
2022-12-06T11:47:28.493Z,10.21
2022-12-06T11:50:33.615Z,10.50
2022-12-06T11:53:46.751Z,10.76
2022-12-06T11:56:50.352Z,9.95
2022-12-06T12:00:16.647Z,8.77
2022-12-06T12:03:34.660Z,8.48
2022-12-06T12:06:37.512Z,9.88
2022-12-06T12:10:27.455Z,10.60
2022-12-06T12:13:46.599Z,9.88
2022-12-06T12:16:50.709Z,8.58
2022-12-06T12:20:06.714Z,8.11
2022-12-06T12:23:33.693Z,8.28
2022-12-06T12:26:40.815Z,9.26
2022-12-06T12:29:43.644Z,10.49
2022-12-06T12:32:47.903Z,11.19
2022-12-06T12:36:04.402Z,10.04
2022-12-06T12:39:42.045Z,8.83
2022-12-06T12:42:46.492Z,8.33
2022-12-06T12:46:06.973Z,9.57
2022-12-06T12:49:28.840Z,10.63
2022-12-06T12:52:42.571Z,10.46
2022-12-06T12:55:45.643Z,9.03
2022-12-06T12:58:52.290Z,8.36
2022-12-06T13:02:20.069Z,9.05
2022-12-06T13:05:34.710Z,9.34
2022-12-06T13:08:39.196Z,9.65
2022-12-06T13:11:47.093Z,9.62
2022-12-06T13:15:00.208Z,9.68
2022-12-06T13:18:11.778Z,9.02
2022-12-06T13:21:20.157Z,7.74
2022-12-06T13:24:27.312Z,7.33
2022-12-06T13:27:36.912Z,8.62
2022-12-06T13:30:42.188Z,9.67
2022-12-06T13:34:12.632Z,10.11
2022-12-06T13:37:37.270Z,9.60
2022-12-06T13:40:47.443Z,8.22
2022-12-06T13:43:50.384Z,7.34
2022-12-06T13:47:28.136Z,7.46
2022-12-06T13:50:33.904Z,9.37
2022-12-06T13:54:05.737Z,10.21
2022-12-06T13:57:22.988Z,8.68
2022-12-06T14:00:28.998Z,7.48
2022-12-06T14:03:31.782Z,7.29
2022-12-06T14:06:43.229Z,7.30
2022-12-06T14:09:50.124Z,7.54
2022-12-06T14:13:00.958Z,7.75
2022-12-06T14:16:05.120Z,7.84
2022-12-06T14:19:24.307Z,7.79
2022-12-06T14:22:34.764Z,8.09
2022-12-06T14:25:37.536Z,8.04
2022-12-06T14:28:41.244Z,7.86
2022-12-06T14:31:43.988Z,7.99
2022-12-06T14:34:48.659Z,7.77
2022-12-06T14:37:54.689Z,7.42
2022-12-06T14:41:16.877Z,7.48
2022-12-06T14:44:21.558Z,7.46
2022-12-06T14:47:24.450Z,7.39
2022-12-06T14:50:40.141Z,7.24
2022-12-06T14:53:43.823Z,6.97
2022-12-06T14:56:48.103Z,7.06
2022-12-06T15:00:25.865Z,7.44
2022-12-06T15:03:35.504Z,7.84
2022-12-06T15:06:52.837Z,7.87
2022-12-06T15:09:55.675Z,7.70
2022-12-06T15:13:15.498Z,7.67
2022-12-06T15:16:18.515Z,7.94
2022-12-06T15:19:21.370Z,7.80
2022-12-06T15:22:27.731Z,7.49
2022-12-06T15:25:30.845Z,7.41
2022-12-06T15:28:37.356Z,7.25
2022-12-06T15:31:41.511Z,7.10
2022-12-06T15:34:45.266Z,7.12
2022-12-06T15:37:50.525Z,8.25
2022-12-06T15:40:56.147Z,9.46
2022-12-06T15:43:58.892Z,8.41
2022-12-06T15:47:01.845Z,6.83
2022-12-06T15:50:05.124Z,7.18
2022-12-06T15:53:13.607Z,8.03
2022-12-06T15:56:19.984Z,8.67
2022-12-06T15:59:22.833Z,8.86
2022-12-06T16:02:25.754Z,7.42
2022-12-06T16:05:29.439Z,6.75
2022-12-06T16:08:32.372Z,7.70
2022-12-06T16:11:35.341Z,8.02
2022-12-06T16:14:38.223Z,8.64
2022-12-06T16:17:40.985Z,9.53
2022-12-06T16:20:43.768Z,8.83
2022-12-06T16:24:13.200Z,7.16
2022-12-06T16:27:16.658Z,6.31
2022-12-06T16:30:34.117Z,6.47
2022-12-06T16:33:37.049Z,6.44
2022-12-06T16:37:02.020Z,6.37
2022-12-06T16:40:05.654Z,6.68
2022-12-06T16:43:09.262Z,6.82
2022-12-06T16:46:27.619Z,7.02
2022-12-06T16:49:47.892Z,7.01
2022-12-06T16:52:52.367Z,6.99
2022-12-06T16:55:55.084Z,7.19
2022-12-06T16:58:58.416Z,7.32
2022-12-06T17:02:01.720Z,7.55
2022-12-06T17:05:08.362Z,7.65
2022-12-06T17:08:11.120Z,7.97
2022-12-06T17:11:38.353Z,8.28
2022-12-06T17:14:42.518Z,8.80
2022-12-06T17:17:46.146Z,8.87
2022-12-06T17:20:48.927Z,8.57
2022-12-06T17:23:51.917Z,7.20
2022-12-06T17:26:55.861Z,6.26
2022-12-06T17:29:58.961Z,6.50
2022-12-06T17:33:01.830Z,7.01
2022-12-06T17:36:06.979Z,7.35
2022-12-06T17:39:11.192Z,7.86
2022-12-06T17:42:32.786Z,8.24
2022-12-06T17:45:35.842Z,8.34
2022-12-06T17:48:44.306Z,8.23
2022-12-06T17:51:47.876Z,8.04
2022-12-06T17:54:50.725Z,7.86
2022-12-06T17:57:53.472Z,7.88
2022-12-06T18:00:58.956Z,7.93
2022-12-06T18:04:03.833Z,7.75
2022-12-06T18:07:06.642Z,7.73
2022-12-06T18:10:10.059Z,7.78
2022-12-06T18:13:12.884Z,7.62
2022-12-06T18:16:21.815Z,7.57
2022-12-06T18:19:24.640Z,7.91
2022-12-06T18:22:27.466Z,8.09
2022-12-06T18:25:30.281Z,8.00
2022-12-06T18:28:33.059Z,7.80
2022-12-06T18:31:36.995Z,7.73
2022-12-06T18:34:39.870Z,7.46
2022-12-06T18:37:42.838Z,7.28
2022-12-06T18:40:46.304Z,7.23
2022-12-06T18:43:49.343Z,7.32
2022-12-06T18:46:52.363Z,7.49
2022-12-06T18:49:56.621Z,7.53
2022-12-06T18:53:00.827Z,7.50
2022-12-06T18:56:06.677Z,7.43
2022-12-06T18:59:11.629Z,7.33
2022-12-06T19:02:14.670Z,6.99
2022-12-06T19:05:33.071Z,7.01
2022-12-06T19:08:42.582Z,7.20
2022-12-06T19:11:46.417Z,7.21
2022-12-06T19:14:52.200Z,7.19
2022-12-06T19:17:55.057Z,7.18
2022-12-06T19:21:01.877Z,7.08
2022-12-06T19:24:04.950Z,7.04
2022-12-06T19:27:07.916Z,6.93
2022-12-06T19:30:11.499Z,6.86
2022-12-06T19:33:14.301Z,6.89
2022-12-06T19:36:20.385Z,6.95
2022-12-06T19:39:24.143Z,6.99
2022-12-06T19:42:46.172Z,7.08
2022-12-06T19:45:49.056Z,6.86
2022-12-06T19:48:53.658Z,6.72
2022-12-06T19:51:56.484Z,6.70
2022-12-06T19:54:59.333Z,6.67
2022-12-06T19:58:02.184Z,6.54
2022-12-06T20:01:10.574Z,6.45
2022-12-06T20:04:16.755Z,6.26
2022-12-06T20:07:19.607Z,6.60
2022-12-06T20:10:22.396Z,6.82
2022-12-06T20:13:25.241Z,6.84
2022-12-06T20:16:28.108Z,6.87
2022-12-06T20:19:30.948Z,6.79
2022-12-06T20:22:33.757Z,7.55
2022-12-06T20:25:37.212Z,8.09
2022-12-06T20:28:40.202Z,8.33
2022-12-06T20:31:43.039Z,8.94
2022-12-06T20:34:45.883Z,8.49
2022-12-06T20:37:51.877Z,7.06
2022-12-06T20:40:54.791Z,6.15
2022-12-06T20:43:57.831Z,6.18
2022-12-06T20:47:00.919Z,6.04
2022-12-06T20:50:04.743Z,5.79
2022-12-06T20:53:07.495Z,5.60
2022-12-06T20:56:13.262Z,5.54
2022-12-06T20:59:15.981Z,5.92
2022-12-06T21:02:18.865Z,6.39
2022-12-06T21:05:21.646Z,7.41
2022-12-06T21:08:24.465Z,7.61
2022-12-06T21:11:27.372Z,7.46
2022-12-06T21:14:30.296Z,6.94
2022-12-06T21:17:33.139Z,6.76
2022-12-06T21:20:40.027Z,6.49
2022-12-06T21:23:42.784Z,6.41
2022-12-06T21:26:45.937Z,6.44
2022-12-06T21:29:48.858Z,6.42
2022-12-06T21:32:51.614Z,6.15
2022-12-06T21:36:01.332Z,5.80
2022-12-06T21:39:04.851Z,5.55
2022-12-06T21:42:07.944Z,5.37
2022-12-06T21:45:11.304Z,5.21
2022-12-06T21:48:14.148Z,5.12
2022-12-06T21:51:17.036Z,5.04
2022-12-06T21:54:19.753Z,5.44
2022-12-06T21:57:22.484Z,5.61
2022-12-06T22:00:25.297Z,5.51
2022-12-06T22:03:28.398Z,5.35
2022-12-06T22:06:32.823Z,5.14
2022-12-06T22:09:35.760Z,5.13
2022-12-06T22:12:38.689Z,5.05
2022-12-06T22:15:41.493Z,5.27
2022-12-06T22:18:46.357Z,6.09
2022-12-06T22:21:49.414Z,7.37
2022-12-06T22:24:52.304Z,8.15
2022-12-06T22:27:55.127Z,8.26
2022-12-06T22:31:13.371Z,8.20
2022-12-06T22:34:16.240Z,8.15
2022-12-06T22:37:21.878Z,8.08
2022-12-06T22:40:28.110Z,8.01
2022-12-06T22:43:30.987Z,7.78
2022-12-06T22:46:35.910Z,7.81
2022-12-06T22:49:38.933Z,7.57
2022-12-06T22:52:41.766Z,7.26
2022-12-06T22:55:44.519Z,7.13
2022-12-06T22:58:47.603Z,6.96
2022-12-06T23:01:50.493Z,6.72
2022-12-06T23:04:53.428Z,6.50
2022-12-06T23:07:57.400Z,6.29
2022-12-06T23:11:06.596Z,6.06
2022-12-06T23:14:09.376Z,5.87
2022-12-06T23:17:12.119Z,5.87
2022-12-06T23:20:15.068Z,5.77
2022-12-06T23:23:17.867Z,5.59
2022-12-06T23:26:26.591Z,5.40
2022-12-06T23:29:29.624Z,5.30
2022-12-06T23:32:32.460Z,5.26
2022-12-06T23:35:35.262Z,5.73
2022-12-06T23:38:38.809Z,6.21
2022-12-06T23:41:41.796Z,6.72
2022-12-06T23:44:44.538Z,6.89
2022-12-06T23:47:47.329Z,6.74
2022-12-06T23:50:58.757Z,7.00
2022-12-06T23:54:04.084Z,7.30
2022-12-06T23:57:06.833Z,7.43
